sensor_id;sensor_type;location;lat;lon;timestamp;P1;durP1;ratioP1;P2;durP2;ratioP2
73779;SDS011;62093;37.614;15.072;2023-11-18T00:00:31;6.10;;;2.50;;
73779;SDS011;62093;37.614;15.072;2023-11-18T00:02:58;6.60;;;2.40;;
73779;SDS011;62093;37.614;15.072;2023-11-18T00:05:24;6.57;;;2.70;;
73779;SDS011;62093;37.614;15.072;2023-11-18T00:07:50;7.65;;;2.78;;
73779;SDS011;62093;37.614;15.072;2023-11-18T00:10:16;8.00;;;2.83;;
73779;SDS011;62093;37.614;15.072;2023-11-18T00:12:42;6.50;;;2.67;;
73779;SDS011;62093;37.614;15.072;2023-11-18T00:15:08;6.30;;;3.30;;
73779;SDS011;62093;37.614;15.072;2023-11-18T00:17:39;6.18;;;2.80;;
73779;SDS011;62093;37.614;15.072;2023-11-18T00:20:05;5.28;;;2.40;;
73779;SDS011;62093;37.614;15.072;2023-11-18T00:22:35;6.43;;;2.50;;
73779;SDS011;62093;37.614;15.072;2023-11-18T00:25:02;6.10;;;2.90;;
73779;SDS011;62093;37.614;15.072;2023-11-18T00:27:30;5.27;;;2.57;;
73779;SDS011;62093;37.614;15.072;2023-11-18T00:29:56;6.20;;;2.90;;
73779;SDS011;62093;37.614;15.072;2023-11-18T00:32:23;6.70;;;2.30;;
73779;SDS011;62093;37.614;15.072;2023-11-18T00:34:48;6.13;;;2.50;;
73779;SDS011;62093;37.614;15.072;2023-11-18T00:37:14;5.55;;;2.33;;
73779;SDS011;62093;37.614;15.072;2023-11-18T00:39:40;5.47;;;2.53;;
73779;SDS011;62093;37.614;15.072;2023-11-18T00:42:06;6.50;;;2.60;;
73779;SDS011;62093;37.614;15.072;2023-11-18T00:44:32;5.35;;;2.53;;
73779;SDS011;62093;37.614;15.072;2023-11-18T00:46:58;6.15;;;2.28;;
73779;SDS011;62093;37.614;15.072;2023-11-18T00:49:26;6.40;;;2.47;;
73779;SDS011;62093;37.614;15.072;2023-11-18T00:51:52;5.10;;;2.50;;
73779;SDS011;62093;37.614;15.072;2023-11-18T00:54:18;6.18;;;2.42;;
73779;SDS011;62093;37.614;15.072;2023-11-18T00:56:44;8.48;;;3.00;;
73779;SDS011;62093;37.614;15.072;2023-11-18T00:59:09;7.23;;;3.27;;
73779;SDS011;62093;37.614;15.072;2023-11-18T01:01:35;5.82;;;2.85;;
73779;SDS011;62093;37.614;15.072;2023-11-18T01:04:02;6.03;;;2.70;;
73779;SDS011;62093;37.614;15.072;2023-11-18T01:06:29;7.97;;;3.00;;
73779;SDS011;62093;37.614;15.072;2023-11-18T01:08:55;6.95;;;2.40;;
73779;SDS011;62093;37.614;15.072;2023-11-18T01:11:20;6.35;;;2.63;;
73779;SDS011;62093;37.614;15.072;2023-11-18T01:13:48;6.00;;;2.80;;
73779;SDS011;62093;37.614;15.072;2023-11-18T01:16:14;6.27;;;2.50;;
73779;SDS011;62093;37.614;15.072;2023-11-18T01:18:40;5.45;;;2.67;;
73779;SDS011;62093;37.614;15.072;2023-11-18T01:21:07;4.80;;;2.55;;
73779;SDS011;62093;37.614;15.072;2023-11-18T01:23:35;5.65;;;2.20;;
73779;SDS011;62093;37.614;15.072;2023-11-18T01:26:04;5.80;;;2.33;;
73779;SDS011;62093;37.614;15.072;2023-11-18T01:28:34;6.07;;;2.53;;
73779;SDS011;62093;37.614;15.072;2023-11-18T01:31:04;5.82;;;2.40;;
73779;SDS011;62093;37.614;15.072;2023-11-18T01:33:30;5.47;;;2.50;;
73779;SDS011;62093;37.614;15.072;2023-11-18T01:35:58;5.30;;;2.47;;
73779;SDS011;62093;37.614;15.072;2023-11-18T01:38:24;4.50;;;2.00;;
73779;SDS011;62093;37.614;15.072;2023-11-18T01:40:51;5.40;;;2.23;;
73779;SDS011;62093;37.614;15.072;2023-11-18T01:43:18;5.57;;;2.38;;
73779;SDS011;62093;37.614;15.072;2023-11-18T01:45:45;5.28;;;2.10;;
73779;SDS011;62093;37.614;15.072;2023-11-18T01:48:11;4.90;;;2.13;;
73779;SDS011;62093;37.614;15.072;2023-11-18T01:50:39;5.32;;;1.88;;
73779;SDS011;62093;37.614;15.072;2023-11-18T01:53:07;5.30;;;2.10;;
73779;SDS011;62093;37.614;15.072;2023-11-18T01:55:35;5.15;;;2.40;;
73779;SDS011;62093;37.614;15.072;2023-11-18T01:58:01;5.07;;;1.92;;
73779;SDS011;62093;37.614;15.072;2023-11-18T02:00:42;5.43;;;2.10;;
73779;SDS011;62093;37.614;15.072;2023-11-18T02:03:08;6.05;;;2.13;;
73779;SDS011;62093;37.614;15.072;2023-11-18T02:05:34;4.83;;;2.00;;
73779;SDS011;62093;37.614;15.072;2023-11-18T02:08:03;5.50;;;2.20;;
73779;SDS011;62093;37.614;15.072;2023-11-18T02:13:27;4.60;;;2.17;;
73779;SDS011;62093;37.614;15.072;2023-11-18T02:15:56;5.93;;;2.13;;
73779;SDS011;62093;37.614;15.072;2023-11-18T02:18:26;6.25;;;2.20;;
73779;SDS011;62093;37.614;15.072;2023-11-18T02:20:54;4.70;;;2.00;;
73779;SDS011;62093;37.614;15.072;2023-11-18T02:23:24;4.22;;;1.92;;
73779;SDS011;62093;37.614;15.072;2023-11-18T02:25:54;4.78;;;2.10;;
73779;SDS011;62093;37.614;15.072;2023-11-18T02:28:23;4.93;;;2.07;;
73779;SDS011;62093;37.614;15.072;2023-11-18T02:30:56;5.90;;;2.20;;
73779;SDS011;62093;37.614;15.072;2023-11-18T02:33:51;5.10;;;2.17;;
73779;SDS011;62093;37.614;15.072;2023-11-18T02:37:05;4.90;;;1.90;;
73779;SDS011;62093;37.614;15.072;2023-11-18T02:39:20;5.05;;;2.25;;
73779;SDS011;62093;37.614;15.072;2023-11-18T02:41:51;5.30;;;1.80;;
73779;SDS011;62093;37.614;15.072;2023-11-18T02:44:18;4.38;;;1.83;;
73779;SDS011;62093;37.614;15.072;2023-11-18T02:46:48;4.78;;;2.25;;
73779;SDS011;62093;37.614;15.072;2023-11-18T02:49:14;5.60;;;2.20;;
73779;SDS011;62093;37.614;15.072;2023-11-18T02:51:41;5.03;;;2.17;;
73779;SDS011;62093;37.614;15.072;2023-11-18T02:54:07;4.82;;;2.00;;
73779;SDS011;62093;37.614;15.072;2023-11-18T02:56:36;5.10;;;2.25;;
73779;SDS011;62093;37.614;15.072;2023-11-18T02:59:02;5.60;;;2.28;;
73779;SDS011;62093;37.614;15.072;2023-11-18T03:01:33;5.38;;;2.33;;
73779;SDS011;62093;37.614;15.072;2023-11-18T03:04:00;5.40;;;2.23;;
73779;SDS011;62093;37.614;15.072;2023-11-18T03:06:26;4.32;;;1.98;;
73779;SDS011;62093;37.614;15.072;2023-11-18T03:08:52;5.50;;;2.08;;
73779;SDS011;62093;37.614;15.072;2023-11-18T03:11:19;6.28;;;2.30;;
73779;SDS011;62093;37.614;15.072;2023-11-18T03:13:45;4.73;;;2.40;;
73779;SDS011;62093;37.614;15.072;2023-11-18T03:16:11;5.35;;;2.60;;
73779;SDS011;62093;37.614;15.072;2023-11-18T03:18:38;5.47;;;2.33;;
73779;SDS011;62093;37.614;15.072;2023-11-18T03:21:11;5.82;;;2.35;;
73779;SDS011;62093;37.614;15.072;2023-11-18T03:23:38;5.77;;;2.53;;
73779;SDS011;62093;37.614;15.072;2023-11-18T03:26:06;5.70;;;2.20;;
73779;SDS011;62093;37.614;15.072;2023-11-18T03:28:33;5.13;;;2.10;;
73779;SDS011;62093;37.614;15.072;2023-11-18T03:30:59;5.28;;;2.10;;
73779;SDS011;62093;37.614;15.072;2023-11-18T03:33:26;5.40;;;2.20;;
73779;SDS011;62093;37.614;15.072;2023-11-18T03:35:52;5.47;;;2.30;;
73779;SDS011;62093;37.614;15.072;2023-11-18T03:38:21;5.18;;;2.10;;
73779;SDS011;62093;37.614;15.072;2023-11-18T03:40:47;4.90;;;1.90;;
73779;SDS011;62093;37.614;15.072;2023-11-18T03:43:13;6.10;;;2.07;;
73779;SDS011;62093;37.614;15.072;2023-11-18T03:45:39;5.43;;;2.17;;
73779;SDS011;62093;37.614;15.072;2023-11-18T03:48:07;6.07;;;2.42;;
73779;SDS011;62093;37.614;15.072;2023-11-18T03:50:36;4.90;;;1.88;;
73779;SDS011;62093;37.614;15.072;2023-11-18T03:53:03;4.50;;;1.98;;
73779;SDS011;62093;37.614;15.072;2023-11-18T03:55:29;5.23;;;2.47;;
73779;SDS011;62093;37.614;15.072;2023-11-18T03:57:56;4.95;;;2.13;;
73779;SDS011;62093;37.614;15.072;2023-11-18T04:00:24;5.47;;;2.13;;
73779;SDS011;62093;37.614;15.072;2023-11-18T04:02:58;4.32;;;2.08;;
73779;SDS011;62093;37.614;15.072;2023-11-18T04:05:24;4.82;;;1.77;;
73779;SDS011;62093;37.614;15.072;2023-11-18T04:07:50;5.40;;;2.40;;
73779;SDS011;62093;37.614;15.072;2023-11-18T04:10:17;5.10;;;1.90;;
73779;SDS011;62093;37.614;15.072;2023-11-18T04:12:44;4.93;;;1.92;;
73779;SDS011;62093;37.614;15.072;2023-11-18T04:15:14;5.78;;;1.80;;
73779;SDS011;62093;37.614;15.072;2023-11-18T04:17:41;4.93;;;2.10;;
73779;SDS011;62093;37.614;15.072;2023-11-18T04:20:07;4.35;;;1.88;;
73779;SDS011;62093;37.614;15.072;2023-11-18T04:22:42;5.00;;;1.95;;
73779;SDS011;62093;37.614;15.072;2023-11-18T04:25:11;5.38;;;2.00;;
73779;SDS011;62093;37.614;15.072;2023-11-18T04:27:37;4.85;;;1.88;;
73779;SDS011;62093;37.614;15.072;2023-11-18T04:30:04;5.13;;;2.13;;
73779;SDS011;62093;37.614;15.072;2023-11-18T04:32:30;4.30;;;1.70;;
73779;SDS011;62093;37.614;15.072;2023-11-18T04:34:58;4.50;;;1.85;;
73779;SDS011;62093;37.614;15.072;2023-11-18T04:37:25;4.90;;;2.15;;
73779;SDS011;62093;37.614;15.072;2023-11-18T04:39:52;4.15;;;1.70;;
73779;SDS011;62093;37.614;15.072;2023-11-18T04:42:19;5.23;;;2.13;;
73779;SDS011;62093;37.614;15.072;2023-11-18T04:44:45;4.75;;;2.20;;
73779;SDS011;62093;37.614;15.072;2023-11-18T04:47:10;3.90;;;1.80;;
73779;SDS011;62093;37.614;15.072;2023-11-18T04:49:36;4.60;;;1.77;;
73779;SDS011;62093;37.614;15.072;2023-11-18T04:52:02;4.93;;;2.03;;
73779;SDS011;62093;37.614;15.072;2023-11-18T04:54:28;4.40;;;2.10;;
73779;SDS011;62093;37.614;15.072;2023-11-18T04:56:54;5.47;;;2.10;;
73779;SDS011;62093;37.614;15.072;2023-11-18T04:59:20;4.72;;;1.80;;
73779;SDS011;62093;37.614;15.072;2023-11-18T05:01:46;4.30;;;1.63;;
73779;SDS011;62093;37.614;15.072;2023-11-18T05:04:12;5.22;;;1.90;;
73779;SDS011;62093;37.614;15.072;2023-11-18T05:06:38;5.63;;;1.85;;
73779;SDS011;62093;37.614;15.072;2023-11-18T05:09:04;5.47;;;1.90;;
73779;SDS011;62093;37.614;15.072;2023-11-18T05:11:33;4.43;;;1.80;;
73779;SDS011;62093;37.614;15.072;2023-11-18T05:14:00;5.05;;;1.90;;
73779;SDS011;62093;37.614;15.072;2023-11-18T05:16:26;5.50;;;1.85;;
73779;SDS011;62093;37.614;15.072;2023-11-18T05:18:52;4.53;;;1.80;;
73779;SDS011;62093;37.614;15.072;2023-11-18T05:21:17;4.60;;;2.00;;
73779;SDS011;62093;37.614;15.072;2023-11-18T05:23:44;5.13;;;1.73;;
73779;SDS011;62093;37.614;15.072;2023-11-18T05:26:09;4.90;;;1.57;;
73779;SDS011;62093;37.614;15.072;2023-11-18T05:28:35;5.15;;;1.65;;
73779;SDS011;62093;37.614;15.072;2023-11-18T05:31:01;4.50;;;1.65;;
73779;SDS011;62093;37.614;15.072;2023-11-18T05:33:28;4.72;;;1.73;;
73779;SDS011;62093;37.614;15.072;2023-11-18T05:35:54;5.07;;;2.07;;
73779;SDS011;62093;37.614;15.072;2023-11-18T05:38:20;5.45;;;2.00;;
73779;SDS011;62093;37.614;15.072;2023-11-18T05:40:51;4.78;;;1.90;;
73779;SDS011;62093;37.614;15.072;2023-11-18T05:43:27;5.60;;;1.80;;
73779;SDS011;62093;37.614;15.072;2023-11-18T05:45:56;4.45;;;1.65;;
73779;SDS011;62093;37.614;15.072;2023-11-18T05:48:45;4.97;;;1.47;;
73779;SDS011;62093;37.614;15.072;2023-11-18T05:51:12;5.60;;;1.50;;
73779;SDS011;62093;37.614;15.072;2023-11-18T05:53:41;5.88;;;2.17;;
73779;SDS011;62093;37.614;15.072;2023-11-18T05:56:10;6.07;;;2.03;;
73779;SDS011;62093;37.614;15.072;2023-11-18T05:58:42;5.77;;;1.80;;
73779;SDS011;62093;37.614;15.072;2023-11-18T06:01:08;5.35;;;1.90;;
73779;SDS011;62093;37.614;15.072;2023-11-18T06:03:36;4.20;;;1.58;;
73779;SDS011;62093;37.614;15.072;2023-11-18T06:06:07;4.05;;;1.55;;
73779;SDS011;62093;37.614;15.072;2023-11-18T06:08:34;5.15;;;1.90;;
73779;SDS011;62093;37.614;15.072;2023-11-18T06:11:01;4.60;;;1.47;;
73779;SDS011;62093;37.614;15.072;2023-11-18T06:13:38;3.83;;;1.48;;
73779;SDS011;62093;37.614;15.072;2023-11-18T06:16:14;4.15;;;1.55;;
73779;SDS011;62093;37.614;15.072;2023-11-18T06:18:44;5.05;;;1.75;;
73779;SDS011;62093;37.614;15.072;2023-11-18T06:21:10;4.65;;;1.50;;
73779;SDS011;62093;37.614;15.072;2023-11-18T06:23:37;3.73;;;1.30;;
73779;SDS011;62093;37.614;15.072;2023-11-18T06:26:03;5.18;;;1.88;;
73779;SDS011;62093;37.614;15.072;2023-11-18T06:28:29;4.70;;;1.50;;
73779;SDS011;62093;37.614;15.072;2023-11-18T06:30:55;4.93;;;1.57;;
73779;SDS011;62093;37.614;15.072;2023-11-18T06:33:21;4.47;;;1.70;;
73779;SDS011;62093;37.614;15.072;2023-11-18T06:35:48;4.72;;;1.60;;
73779;SDS011;62093;37.614;15.072;2023-11-18T06:38:15;6.72;;;1.98;;
73779;SDS011;62093;37.614;15.072;2023-11-18T06:40:44;4.47;;;1.50;;
73779;SDS011;62093;37.614;15.072;2023-11-18T06:43:11;4.57;;;1.70;;
73779;SDS011;62093;37.614;15.072;2023-11-18T06:45:37;5.22;;;1.70;;
73779;SDS011;62093;37.614;15.072;2023-11-18T06:48:08;4.97;;;1.55;;
73779;SDS011;62093;37.614;15.072;2023-11-18T06:50:34;5.70;;;2.10;;
73779;SDS011;62093;37.614;15.072;2023-11-18T06:53:00;4.15;;;1.35;;
73779;SDS011;62093;37.614;15.072;2023-11-18T06:55:26;4.80;;;1.50;;
73779;SDS011;62093;37.614;15.072;2023-11-18T06:57:52;5.40;;;1.60;;
73779;SDS011;62093;37.614;15.072;2023-11-18T07:00:22;5.50;;;1.50;;
73779;SDS011;62093;37.614;15.072;2023-11-18T07:02:47;3.73;;;1.17;;
73779;SDS011;62093;37.614;15.072;2023-11-18T07:05:14;5.57;;;1.58;;
73779;SDS011;62093;37.614;15.072;2023-11-18T07:07:40;4.55;;;1.80;;
73779;SDS011;62093;37.614;15.072;2023-11-18T07:10:08;3.90;;;1.10;;
73779;SDS011;62093;37.614;15.072;2023-11-18T07:12:38;5.00;;;1.70;;
73779;SDS011;62093;37.614;15.072;2023-11-18T07:15:04;4.27;;;1.50;;
73779;SDS011;62093;37.614;15.072;2023-11-18T07:17:31;4.95;;;1.45;;
73779;SDS011;62093;37.614;15.072;2023-11-18T07:19:56;6.70;;;1.58;;
73779;SDS011;62093;37.614;15.072;2023-11-18T07:22:22;5.23;;;1.40;;
73779;SDS011;62093;37.614;15.072;2023-11-18T07:24:48;5.40;;;1.52;;
73779;SDS011;62093;37.614;15.072;2023-11-18T07:27:14;4.65;;;1.52;;
73779;SDS011;62093;37.614;15.072;2023-11-18T07:29:40;4.30;;;1.47;;
73779;SDS011;62093;37.614;15.072;2023-11-18T07:32:05;4.80;;;1.58;;
73779;SDS011;62093;37.614;15.072;2023-11-18T07:34:31;4.83;;;1.60;;
73779;SDS011;62093;37.614;15.072;2023-11-18T07:37:00;5.03;;;1.60;;
73779;SDS011;62093;37.614;15.072;2023-11-18T07:39:27;4.07;;;1.42;;
73779;SDS011;62093;37.614;15.072;2023-11-18T07:42:12;4.40;;;1.60;;
73779;SDS011;62093;37.614;15.072;2023-11-18T07:44:38;5.17;;;1.70;;
73779;SDS011;62093;37.614;15.072;2023-11-18T07:47:04;5.60;;;1.80;;
73779;SDS011;62093;37.614;15.072;2023-11-18T07:49:34;4.60;;;1.70;;
73779;SDS011;62093;37.614;15.072;2023-11-18T07:52:03;5.20;;;1.60;;
73779;SDS011;62093;37.614;15.072;2023-11-18T07:54:29;4.63;;;1.40;;
73779;SDS011;62093;37.614;15.072;2023-11-18T07:56:55;4.32;;;1.60;;
73779;SDS011;62093;37.614;15.072;2023-11-18T07:59:21;4.47;;;1.70;;
73779;SDS011;62093;37.614;15.072;2023-11-18T08:01:47;4.80;;;1.50;;
73779;SDS011;62093;37.614;15.072;2023-11-18T08:04:13;5.18;;;1.52;;
73779;SDS011;62093;37.614;15.072;2023-11-18T08:06:39;5.35;;;1.75;;
73779;SDS011;62093;37.614;15.072;2023-11-18T08:09:06;5.15;;;1.90;;
73779;SDS011;62093;37.614;15.072;2023-11-18T08:11:38;5.30;;;1.57;;
73779;SDS011;62093;37.614;15.072;2023-11-18T08:14:07;4.28;;;1.50;;
73779;SDS011;62093;37.614;15.072;2023-11-18T08:16:35;4.22;;;1.55;;
73779;SDS011;62093;37.614;15.072;2023-11-18T08:19:01;5.20;;;1.90;;
73779;SDS011;62093;37.614;15.072;2023-11-18T08:21:28;4.37;;;1.50;;
73779;SDS011;62093;37.614;15.072;2023-11-18T08:23:54;4.85;;;1.70;;
73779;SDS011;62093;37.614;15.072;2023-11-18T08:26:21;4.60;;;1.52;;
73779;SDS011;62093;37.614;15.072;2023-11-18T08:28:47;5.47;;;1.70;;
73779;SDS011;62093;37.614;15.072;2023-11-18T08:31:13;4.50;;;1.53;;
73779;SDS011;62093;37.614;15.072;2023-11-18T08:33:41;5.85;;;1.80;;
73779;SDS011;62093;37.614;15.072;2023-11-18T08:36:08;5.38;;;1.58;;
73779;SDS011;62093;37.614;15.072;2023-11-18T08:38:34;5.95;;;1.70;;
73779;SDS011;62093;37.614;15.072;2023-11-18T08:41:01;4.87;;;1.60;;
73779;SDS011;62093;37.614;15.072;2023-11-18T08:43:27;6.15;;;1.75;;
73779;SDS011;62093;37.614;15.072;2023-11-18T08:45:57;6.28;;;1.77;;
73779;SDS011;62093;37.614;15.072;2023-11-18T08:48:23;5.50;;;1.63;;
73779;SDS011;62093;37.614;15.072;2023-11-18T08:50:48;6.03;;;1.70;;
73779;SDS011;62093;37.614;15.072;2023-11-18T08:53:14;5.85;;;1.83;;
73779;SDS011;62093;37.614;15.072;2023-11-18T08:55:43;5.15;;;1.75;;
73779;SDS011;62093;37.614;15.072;2023-11-18T08:58:22;5.85;;;1.70;;
73779;SDS011;62093;37.614;15.072;2023-11-18T09:00:58;6.87;;;1.80;;
73779;SDS011;62093;37.614;15.072;2023-11-18T09:03:31;5.07;;;1.70;;
73779;SDS011;62093;37.614;15.072;2023-11-18T09:06:00;4.63;;;1.60;;
73779;SDS011;62093;37.614;15.072;2023-11-18T09:08:37;4.68;;;1.58;;
73779;SDS011;62093;37.614;15.072;2023-11-18T09:11:08;4.90;;;1.60;;
73779;SDS011;62093;37.614;15.072;2023-11-18T09:13:42;4.83;;;1.77;;
73779;SDS011;62093;37.614;15.072;2023-11-18T09:16:19;4.82;;;1.60;;
73779;SDS011;62093;37.614;15.072;2023-11-18T09:18:50;4.97;;;1.52;;
73779;SDS011;62093;37.614;15.072;2023-11-18T09:21:17;5.47;;;1.52;;
73779;SDS011;62093;37.614;15.072;2023-11-18T09:23:50;5.78;;;1.63;;
73779;SDS011;62093;37.614;15.072;2023-11-18T09:26:16;6.37;;;1.63;;
73779;SDS011;62093;37.614;15.072;2023-11-18T09:28:42;5.35;;;1.50;;
73779;SDS011;62093;37.614;15.072;2023-11-18T09:31:12;4.65;;;1.60;;
73779;SDS011;62093;37.614;15.072;2023-11-18T09:33:38;5.68;;;1.70;;
73779;SDS011;62093;37.614;15.072;2023-11-18T09:36:10;5.10;;;1.85;;
73779;SDS011;62093;37.614;15.072;2023-11-18T09:38:38;6.57;;;1.70;;
73779;SDS011;62093;37.614;15.072;2023-11-18T09:41:11;5.95;;;1.80;;
73779;SDS011;62093;37.614;15.072;2023-11-18T09:43:37;6.57;;;1.73;;
73779;SDS011;62093;37.614;15.072;2023-11-18T09:46:13;4.88;;;1.73;;
73779;SDS011;62093;37.614;15.072;2023-11-18T09:48:45;4.70;;;1.45;;
73779;SDS011;62093;37.614;15.072;2023-11-18T09:53:52;6.53;;;1.73;;
73779;SDS011;62093;37.614;15.072;2023-11-18T09:56:23;4.20;;;1.35;;
73779;SDS011;62093;37.614;15.072;2023-11-18T09:59:16;6.18;;;1.80;;
73779;SDS011;62093;37.614;15.072;2023-11-18T10:01:53;4.90;;;1.60;;
73779;SDS011;62093;37.614;15.072;2023-11-18T10:04:25;4.60;;;1.53;;
73779;SDS011;62093;37.614;15.072;2023-11-18T10:06:54;5.93;;;2.00;;
73779;SDS011;62093;37.614;15.072;2023-11-18T10:09:23;5.00;;;1.50;;
73779;SDS011;62093;37.614;15.072;2023-11-18T10:12:18;6.28;;;1.40;;
73779;SDS011;62093;37.614;15.072;2023-11-18T10:14:49;4.72;;;1.80;;
73779;SDS011;62093;37.614;15.072;2023-11-18T10:17:17;5.53;;;1.30;;
73779;SDS011;62093;37.614;15.072;2023-11-18T10:22:22;6.38;;;1.73;;
73779;SDS011;62093;37.614;15.072;2023-11-18T10:24:53;4.50;;;1.67;;
73779;SDS011;62093;37.614;15.072;2023-11-18T10:27:20;5.20;;;1.48;;
73779;SDS011;62093;37.614;15.072;2023-11-18T10:29:49;4.40;;;1.30;;
73779;SDS011;62093;37.614;15.072;2023-11-18T10:32:17;4.85;;;1.58;;
73779;SDS011;62093;37.614;15.072;2023-11-18T10:34:47;5.22;;;1.42;;
73779;SDS011;62093;37.614;15.072;2023-11-18T10:37:14;4.50;;;1.52;;
73779;SDS011;62093;37.614;15.072;2023-11-18T10:39:46;4.75;;;1.40;;
73779;SDS011;62093;37.614;15.072;2023-11-18T10:42:13;4.97;;;1.43;;
73779;SDS011;62093;37.614;15.072;2023-11-18T10:44:55;5.10;;;1.35;;
73779;SDS011;62093;37.614;15.072;2023-11-18T10:47:32;6.32;;;1.60;;
73779;SDS011;62093;37.614;15.072;2023-11-18T10:49:58;5.68;;;1.23;;
73779;SDS011;62093;37.614;15.072;2023-11-18T10:52:24;3.80;;;1.02;;
73779;SDS011;62093;37.614;15.072;2023-11-18T10:55:00;4.97;;;1.47;;
73779;SDS011;62093;37.614;15.072;2023-11-18T10:57:32;3.90;;;1.30;;
73779;SDS011;62093;37.614;15.072;2023-11-18T11:00:02;4.68;;;1.40;;
73779;SDS011;62093;37.614;15.072;2023-11-18T11:02:32;4.22;;;1.13;;
73779;SDS011;62093;37.614;15.072;2023-11-18T11:05:00;4.40;;;1.42;;
73779;SDS011;62093;37.614;15.072;2023-11-18T11:07:27;3.90;;;1.40;;
73779;SDS011;62093;37.614;15.072;2023-11-18T11:09:55;4.50;;;1.50;;
73779;SDS011;62093;37.614;15.072;2023-11-18T11:12:21;4.40;;;1.30;;
73779;SDS011;62093;37.614;15.072;2023-11-18T11:14:55;4.43;;;1.33;;
73779;SDS011;62093;37.614;15.072;2023-11-18T11:17:31;6.35;;;1.70;;
73779;SDS011;62093;37.614;15.072;2023-11-18T11:25:55;4.47;;;1.50;;
73779;SDS011;62093;37.614;15.072;2023-11-18T11:28:28;4.30;;;1.65;;
73779;SDS011;62093;37.614;15.072;2023-11-18T11:31:23;4.57;;;1.50;;
73779;SDS011;62093;37.614;15.072;2023-11-18T11:33:59;8.17;;;1.57;;
73779;SDS011;62093;37.614;15.072;2023-11-18T11:36:41;4.35;;;1.60;;
73779;SDS011;62093;37.614;15.072;2023-11-18T11:39:08;4.35;;;1.48;;
73779;SDS011;62093;37.614;15.072;2023-11-18T11:41:46;5.63;;;1.50;;
73779;SDS011;62093;37.614;15.072;2023-11-18T11:44:16;4.38;;;1.50;;
73779;SDS011;62093;37.614;15.072;2023-11-18T11:46:45;5.40;;;1.40;;
73779;SDS011;62093;37.614;15.072;2023-11-18T11:49:19;3.95;;;1.40;;
73779;SDS011;62093;37.614;15.072;2023-11-18T11:51:52;5.20;;;1.50;;
73779;SDS011;62093;37.614;15.072;2023-11-18T11:54:35;4.30;;;1.50;;
73779;SDS011;62093;37.614;15.072;2023-11-18T11:57:06;4.75;;;1.40;;
73779;SDS011;62093;37.614;15.072;2023-11-18T11:59:36;4.50;;;1.30;;
73779;SDS011;62093;37.614;15.072;2023-11-18T12:02:25;4.10;;;1.30;;
73779;SDS011;62093;37.614;15.072;2023-11-18T12:04:57;4.40;;;1.23;;
73779;SDS011;62093;37.614;15.072;2023-11-18T12:07:32;5.35;;;1.17;;
73779;SDS011;62093;37.614;15.072;2023-11-18T12:10:05;5.10;;;1.43;;
73779;SDS011;62093;37.614;15.072;2023-11-18T12:12:38;4.53;;;1.40;;
73779;SDS011;62093;37.614;15.072;2023-11-18T12:15:05;3.90;;;1.20;;
73779;SDS011;62093;37.614;15.072;2023-11-18T12:20:41;4.18;;;1.30;;
73779;SDS011;62093;37.614;15.072;2023-11-18T12:23:10;3.80;;;1.27;;
73779;SDS011;62093;37.614;15.072;2023-11-18T12:25:48;4.82;;;1.10;;
73779;SDS011;62093;37.614;15.072;2023-11-18T12:28:20;4.53;;;1.58;;
73779;SDS011;62093;37.614;15.072;2023-11-18T12:30:52;6.38;;;1.55;;
73779;SDS011;62093;37.614;15.072;2023-11-18T12:33:25;4.28;;;1.30;;
73779;SDS011;62093;37.614;15.072;2023-11-18T12:41:39;3.78;;;1.27;;
73779;SDS011;62093;37.614;15.072;2023-11-18T12:44:15;5.38;;;1.35;;
73779;SDS011;62093;37.614;15.072;2023-11-18T12:46:47;4.68;;;1.30;;
73779;SDS011;62093;37.614;15.072;2023-11-18T12:49:21;4.63;;;1.13;;
73779;SDS011;62093;37.614;15.072;2023-11-18T12:51:51;4.88;;;1.40;;
73779;SDS011;62093;37.614;15.072;2023-11-18T12:54:22;4.68;;;1.20;;
73779;SDS011;62093;37.614;15.072;2023-11-18T12:56:53;5.13;;;1.30;;
73779;SDS011;62093;37.614;15.072;2023-11-18T12:59:20;4.47;;;1.30;;
73779;SDS011;62093;37.614;15.072;2023-11-18T13:01:49;4.07;;;1.07;;
73779;SDS011;62093;37.614;15.072;2023-11-18T13:04:24;4.07;;;1.30;;
73779;SDS011;62093;37.614;15.072;2023-11-18T13:06:52;4.95;;;1.30;;
73779;SDS011;62093;37.614;15.072;2023-11-18T13:09:19;4.35;;;1.20;;
73779;SDS011;62093;37.614;15.072;2023-11-18T13:11:52;4.97;;;1.38;;
73779;SDS011;62093;37.614;15.072;2023-11-18T13:14:25;5.00;;;1.23;;
73779;SDS011;62093;37.614;15.072;2023-11-18T13:16:55;4.10;;;1.15;;
73779;SDS011;62093;37.614;15.072;2023-11-18T13:19:28;3.70;;;1.02;;
73779;SDS011;62093;37.614;15.072;2023-11-18T13:21:58;4.95;;;1.15;;
73779;SDS011;62093;37.614;15.072;2023-11-18T13:24:27;4.55;;;1.48;;
73779;SDS011;62093;37.614;15.072;2023-11-18T13:26:54;3.93;;;1.30;;
73779;SDS011;62093;37.614;15.072;2023-11-18T13:29:21;4.88;;;0.93;;
73779;SDS011;62093;37.614;15.072;2023-11-18T13:31:48;5.00;;;0.90;;
73779;SDS011;62093;37.614;15.072;2023-11-18T13:34:14;4.35;;;1.00;;
73779;SDS011;62093;37.614;15.072;2023-11-18T13:36:41;3.95;;;0.98;;
73779;SDS011;62093;37.614;15.072;2023-11-18T13:39:15;4.77;;;1.00;;
73779;SDS011;62093;37.614;15.072;2023-11-18T13:41:44;3.70;;;0.90;;
73779;SDS011;62093;37.614;15.072;2023-11-18T13:44:31;5.05;;;1.05;;
73779;SDS011;62093;37.614;15.072;2023-11-18T13:47:07;3.25;;;0.80;;
73779;SDS011;62093;37.614;15.072;2023-11-18T13:49:37;5.20;;;1.10;;
73779;SDS011;62093;37.614;15.072;2023-11-18T13:52:07;4.90;;;1.10;;
73779;SDS011;62093;37.614;15.072;2023-11-18T13:54:36;5.00;;;0.82;;
73779;SDS011;62093;37.614;15.072;2023-11-18T13:57:05;3.90;;;0.90;;
73779;SDS011;62093;37.614;15.072;2023-11-18T13:59:32;4.00;;;0.88;;
73779;SDS011;62093;37.614;15.072;2023-11-18T14:01:58;4.32;;;0.80;;
73779;SDS011;62093;37.614;15.072;2023-11-18T14:04:27;3.53;;;0.60;;
73779;SDS011;62093;37.614;15.072;2023-11-18T14:06:58;4.32;;;1.00;;
73779;SDS011;62093;37.614;15.072;2023-11-18T14:09:25;4.18;;;0.98;;
73779;SDS011;62093;37.614;15.072;2023-11-18T14:11:52;3.92;;;0.80;;
73779;SDS011;62093;37.614;15.072;2023-11-18T14:14:24;3.85;;;0.95;;
73779;SDS011;62093;37.614;15.072;2023-11-18T14:16:52;4.00;;;0.63;;
73779;SDS011;62093;37.614;15.072;2023-11-18T14:19:25;4.75;;;0.70;;
73779;SDS011;62093;37.614;15.072;2023-11-18T14:21:53;3.15;;;0.70;;
73779;SDS011;62093;37.614;15.072;2023-11-18T14:24:19;3.85;;;0.95;;
73779;SDS011;62093;37.614;15.072;2023-11-18T14:26:48;4.07;;;0.93;;
73779;SDS011;62093;37.614;15.072;2023-11-18T14:29:15;3.40;;;0.70;;
73779;SDS011;62093;37.614;15.072;2023-11-18T14:31:41;3.80;;;0.65;;
73779;SDS011;62093;37.614;15.072;2023-11-18T14:34:07;3.92;;;0.70;;
73779;SDS011;62093;37.614;15.072;2023-11-18T14:36:38;3.30;;;0.80;;
73779;SDS011;62093;37.614;15.072;2023-11-18T14:39:04;3.55;;;0.65;;
73779;SDS011;62093;37.614;15.072;2023-11-18T14:41:30;4.57;;;0.80;;
73779;SDS011;62093;37.614;15.072;2023-11-18T14:43:57;3.63;;;0.65;;
73779;SDS011;62093;37.614;15.072;2023-11-18T14:46:23;3.13;;;0.63;;
73779;SDS011;62093;37.614;15.072;2023-11-18T14:48:49;3.25;;;0.70;;
73779;SDS011;62093;37.614;15.072;2023-11-18T14:51:16;3.00;;;0.63;;
73779;SDS011;62093;37.614;15.072;2023-11-18T14:53:43;3.53;;;0.80;;
73779;SDS011;62093;37.614;15.072;2023-11-18T14:56:09;3.40;;;0.82;;
73779;SDS011;62093;37.614;15.072;2023-11-18T14:58:35;3.25;;;0.70;;
73779;SDS011;62093;37.614;15.072;2023-11-18T15:01:02;4.13;;;0.63;;
73779;SDS011;62093;37.614;15.072;2023-11-18T15:03:28;5.03;;;0.60;;
73779;SDS011;62093;37.614;15.072;2023-11-18T15:05:55;3.57;;;0.50;;